Airfield :
LOGIN :

Register | Disclaimer

   EN    FR    IT 

 










Legend :    VFR   Marginal VFR   IFR   Intensive IFR   Very Intensive IFR
Visi :
Ceiling :
>= 8 km
>= 3000ft
5 to 8 km
1000 to 3000 ft
1500m to 5 km
500 to 1000 ft
800 to 1500m
200 to 500 ft
< 800m
< 200 ft
Symbols :   Thunderstorms  Fog  Heavy snow  Heavy precipitations  Wind > 20 kt
SIGMETs :     Misc.  Thunderstorms  Icing  Turbulence  Mountain Waves  Volcanic Ashes






- Airport Elevation : 106 ft
- IATA code : NRN


EDLV - Weeze

CURRENT METAR :
  • 271420Z 08006KT 030V130 9999 -RA BKN007 03/02 Q0994

EXPIRED METARs :
  • 271350Z 10005KT 050V140 9999 -RA BKN008 03/02 Q0994
  • 271320Z 11007KT 070V140 9999 -RA BKN007 03/02 Q0994
  • 271250Z 12006KT 070V150 9999 -RA BKN010 04/02 Q0995
  • 271220Z 13007KT 9999 -RA SCT010 04/02 Q0995
  • 271150Z 14006KT 110V170 9000 -RA BKN010 04/02 Q0996

TAF TAF EDLV
Valid from the 27 at 12:00 until the 28 at 12:00 UTC


271100Z 2712/2812 14008KT 9999 BKN015
BECMG 2712/2714 08005KT BKN012
BECMG 2714/2717 33005KT BKN007
TEMPO 2714/2721 4000 -RA
PROB40
TEMPO 2718/2721 2000 SNRA BKN004
BECMG 2719/2722 27007KT
BECMG 2723/2802 SCT010
BECMG 2808/2811 21010KT



MET'MAP, your aeronautical weather chart ! - Copyright ORBIFLY December 2007 - Disclaimer

ORBIFLY MET'MAP TEAM :

Programming & Development : Alexandra Zaïnal
Concept & original design : Baudouin d'Aumeries
Assistance for programming : Marc-Olivier Méhu
Technical & hardware support : Manuel Goepfert

Contact : metmap@orbifly.com




SOURCES & CREDITS :

   NOAA